Time,TemperatureF,DewpointF,PressureIn,WindDirection,WindDirectionDegrees,WindSpeedMPH,WindSpeedGustMPH,Humidity,HourlyPrecipIn,Conditions,Clouds,dailyrainin,SoftwareType,DateUTC
2013-02-14 00:00:00,31.3,23.7,29.65,WSW,248,0.0,3.0,73,0.00,,---,0.00,VWS V14.01,2013-02-14 05:00:00,
2013-02-14 00:30:00,31.4,23.1,29.64,WSW,248,1.0,4.0,71,0.00,,---,0.00,VWS V14.01,2013-02-14 05:30:00,
2013-02-14 01:00:00,31.6,21.9,29.62,West,270,2.0,9.0,67,0.00,,---,0.00,VWS V14.01,2013-02-14 06:00:00,
2013-02-14 01:30:00,32.5,22.4,29.64,WSW,248,4.0,10.0,66,0.00,,---,0.00,VWS V14.01,2013-02-14 06:30:00,
2013-02-14 02:00:00,32.4,22.7,29.67,WSW,248,1.0,5.0,67,0.00,,---,0.00,VWS V14.01,2013-02-14 07:00:00,
2013-02-14 02:30:00,32.4,23.0,29.66,West,270,3.0,8.0,68,0.00,,---,0.00,VWS V14.01,2013-02-14 07:30:00,
2013-02-14 03:00:00,31.9,23.2,29.66,WSW,248,2.0,5.0,70,0.00,,---,0.00,VWS V14.01,2013-02-14 08:00:00,
2013-02-14 03:30:00,31.5,22.9,29.66,WSW,248,2.0,7.0,70,0.00,,---,0.00,VWS V14.01,2013-02-14 08:30:00,
2013-02-14 04:00:00,31.6,22.3,29.67,West,270,4.0,10.0,68,0.00,,---,0.00,VWS V14.01,2013-02-14 09:00:00,
2013-02-14 04:30:00,31.5,22.5,29.67,West,270,4.0,10.0,69,0.00,,---,0.00,VWS V14.01,2013-02-14 09:30:00,
2013-02-14 05:00:00,31.2,22.2,29.68,West,270,4.0,9.0,69,0.00,,---,0.00,VWS V14.01,2013-02-14 10:00:00,
2013-02-14 05:30:00,31.0,22.4,29.68,West,270,2.0,6.0,70,0.00,,---,0.00,VWS V14.01,2013-02-14 10:30:00,
2013-02-14 06:00:00,30.8,22.2,29.69,SW,225,1.0,4.0,70,0.00,,---,0.00,VWS V14.01,2013-02-14 11:00:00,
2013-02-14 06:30:00,30.4,22.5,29.69,SW,225,1.0,3.0,72,0.00,,---,0.00,VWS V14.01,2013-02-14 11:30:00,
2013-02-14 07:17:00,28.1,21.2,29.71,WSW,250,1.0,1.0,75,0.00,,---,0.00,VWS V14.01,2013-02-14 12:17:00,
2013-02-14 07:22:00,28.1,21.2,29.71,SSW,213,2.0,5.0,75,0.00,,---,0.00,VWS V14.01,2013-02-14 12:22:00,
2013-02-14 07:27:00,28.2,21.3,29.71,SW,231,2.0,5.0,75,0.00,,---,0.00,VWS V14.01,2013-02-14 12:27:00,
2013-02-14 07:30:00,28.6,21.7,29.71,WSW,244,0.0,5.0,75,0.00,,---,0.00,VWS V14.01,2013-02-14 12:30:00,
2013-02-14 07:32:00,28.4,21.5,29.71,WSW,252,2.0,5.0,75,0.00,,---,0.00,VWS V14.01,2013-02-14 12:32:00,
2013-02-14 07:37:00,28.7,21.8,29.72,SW,231,0.0,4.0,75,0.00,,---,0.00,VWS V14.01,2013-02-14 12:37:00,
2013-02-14 07:42:00,29.0,21.8,29.72,WSW,242,2.0,4.0,74,0.00,,---,0.00,VWS V14.01,2013-02-14 12:42:00,
2013-02-14 07:47:00,29.3,22.1,29.72,SW,216,0.0,5.0,74,0.00,,---,0.00,VWS V14.01,2013-02-14 12:47:00,
2013-02-14 07:52:00,29.7,22.1,29.72,WSW,243,3.0,5.0,73,0.00,,---,0.00,VWS V14.01,2013-02-14 12:52:00,
2013-02-14 07:57:00,30.1,22.2,29.73,WSW,242,2.0,5.0,72,0.00,,---,0.00,VWS V14.01,2013-02-14 12:57:00,
2013-02-14 08:00:00,31.2,22.9,29.73,SW,221,0.0,5.0,71,0.00,,---,0.00,VWS V14.01,2013-02-14 13:00:00,
2013-02-14 08:02:00,30.8,22.5,29.73,SW,224,3.0,5.0,71,0.00,,---,0.00,VWS V14.01,2013-02-14 13:02:00,
2013-02-14 08:07:00,31.5,22.9,29.73,WSW,257,5.0,8.0,70,0.00,,---,0.00,VWS V14.01,2013-02-14 13:07:00,
2013-02-14 08:12:00,32.1,22.8,29.73,WSW,241,2.0,10.0,68,0.00,,---,0.00,VWS V14.01,2013-02-14 13:12:00,
2013-02-14 08:17:00,32.4,22.7,29.73,South,183,2.0,10.0,67,0.00,,---,0.00,VWS V14.01,2013-02-14 13:17:00,
2013-02-14 08:22:00,32.4,22.3,29.73,West,278,3.0,13.0,66,0.00,,---,0.00,VWS V14.01,2013-02-14 13:22:00,
2013-02-14 08:27:00,32.4,22.7,29.73,WSW,249,5.0,13.0,67,0.00,,---,0.00,VWS V14.01,2013-02-14 13:27:00,
2013-02-14 08:30:00,32.9,22.8,29.73,WSW,248,7.0,13.0,66,0.00,,---,0.00,VWS V14.01,2013-02-14 13:30:00,
2013-02-14 08:32:00,32.8,22.7,29.73,SW,233,13.0,13.0,66,0.00,,---,0.00,VWS V14.01,2013-02-14 13:32:00,
2013-02-14 08:37:00,33.2,23.1,29.73,WSW,254,3.0,7.0,66,0.00,,---,0.00,VWS V14.01,2013-02-14 13:37:00,
2013-02-14 08:42:00,33.9,23.0,29.73,WSW,253,2.0,10.0,64,0.00,,---,0.00,VWS V14.01,2013-02-14 13:42:00,
2013-02-14 08:47:00,33.8,22.5,29.73,West,273,6.0,12.0,63,0.00,,---,0.00,VWS V14.01,2013-02-14 13:47:00,
2013-02-14 08:52:00,33.2,22.4,29.73,SW,221,6.0,12.0,64,0.00,,---,0.00,VWS V14.01,2013-02-14 13:52:00,
2013-02-14 08:57:00,33.1,21.9,29.73,West,279,8.0,12.0,63,0.00,,---,0.00,VWS V14.01,2013-02-14 13:57:00,
2013-02-14 09:00:00,33.0,21.8,29.73,SW,236,8.0,13.0,63,0.00,,---,0.00,VWS V14.01,2013-02-14 14:00:00,
2013-02-14 09:02:00,33.0,21.4,29.73,SW,234,9.0,12.0,62,0.00,,---,0.00,VWS V14.01,2013-02-14 14:02:00,
2013-02-14 09:07:00,33.1,21.5,29.73,WNW,282,7.0,12.0,62,0.00,,---,0.00,VWS V14.01,2013-02-14 14:07:00,
2013-02-14 09:12:00,33.7,21.7,29.73,WSW,249,5.0,12.0,61,0.00,,---,0.00,VWS V14.01,2013-02-14 14:12:00,
2013-02-14 09:17:00,34.1,21.7,29.73,West,263,4.0,12.0,60,0.00,,---,0.00,VWS V14.01,2013-02-14 14:17:00,
2013-02-14 09:22:00,34.2,21.4,29.73,WSW,256,7.0,14.0,59,0.00,,---,0.00,VWS V14.01,2013-02-14 14:22:00,
2013-02-14 09:27:00,34.6,21.4,29.73,WNW,293,4.0,14.0,58,0.00,,---,0.00,VWS V14.01,2013-02-14 14:27:00,
2013-02-14 09:30:00,35.9,21.3,29.73,SW,229,5.0,14.0,55,0.00,,---,0.00,VWS V14.01,2013-02-14 14:30:00,
2013-02-14 09:32:00,35.5,21.4,29.73,WNW,286,4.0,14.0,56,0.00,,---,0.00,VWS V14.01,2013-02-14 14:32:00,
2013-02-14 09:37:00,35.8,20.4,29.73,SSW,209,6.0,14.0,53,0.00,,---,0.00,VWS V14.01,2013-02-14 14:37:00,
2013-02-14 09:42:00,35.2,20.2,29.73,WSW,238,3.0,14.0,54,0.00,,---,0.00,VWS V14.01,2013-02-14 14:42:00,
2013-02-14 09:47:00,35.5,19.6,29.73,SW,236,9.0,14.0,52,0.00,,---,0.00,VWS V14.01,2013-02-14 14:47:00,
2013-02-14 09:52:00,36.0,19.6,29.74,West,261,2.0,14.0,51,0.00,,---,0.00,VWS V14.01,2013-02-14 14:52:00,
2013-02-14 09:57:00,36.8,19.0,29.74,SSW,194,5.0,14.0,48,0.00,,---,0.00,VWS V14.01,2013-02-14 14:57:00,
2013-02-14 10:00:00,37.1,18.2,29.75,SSW,212,5.0,14.0,46,0.00,,---,0.00,VWS V14.01,2013-02-14 15:00:00,
2013-02-14 10:02:00,37.2,18.8,29.75,SW,217,7.0,14.0,47,0.00,,---,0.00,VWS V14.01,2013-02-14 15:02:00,
2013-02-14 10:07:00,37.0,18.2,29.75,WSW,238,10.0,15.0,46,0.00,,---,0.00,VWS V14.01,2013-02-14 15:07:00,
2013-02-14 10:12:00,37.0,18.7,29.75,West,277,4.0,15.0,47,0.00,,---,0.00,VWS V14.01,2013-02-14 15:12:00,
2013-02-14 10:17:00,36.7,18.4,29.75,West,263,9.0,15.0,47,0.00,,---,0.00,VWS V14.01,2013-02-14 15:17:00,
2013-02-14 10:22:00,37.3,18.9,29.75,WSW,250,3.0,15.0,47,0.00,,---,0.00,VWS V14.01,2013-02-14 15:22:00,
2013-02-14 10:27:00,38.2,17.7,29.75,SSW,211,10.0,15.0,43,0.00,,---,0.00,VWS V14.01,2013-02-14 15:27:00,
2013-02-14 10:30:00,37.9,16.9,29.75,WSW,247,9.0,15.0,42,0.00,,---,0.00,VWS V14.01,2013-02-14 15:30:00,
2013-02-14 10:32:00,37.8,16.2,29.75,SSW,196,9.0,15.0,41,0.00,,---,0.00,VWS V14.01,2013-02-14 15:32:00,
2013-02-14 10:37:00,38.1,17.0,29.75,WSW,239,8.0,13.0,42,0.00,,---,0.00,VWS V14.01,2013-02-14 15:37:00,
2013-02-14 10:42:00,37.9,16.3,29.75,West,276,8.0,15.0,41,0.00,,---,0.00,VWS V14.01,2013-02-14 15:42:00,
2013-02-14 10:47:00,37.8,17.3,29.75,SW,236,5.0,15.0,43,0.00,,---,0.00,VWS V14.01,2013-02-14 15:47:00,
2013-02-14 10:52:00,38.7,17.6,29.75,South,184,6.0,15.0,42,0.00,,---,0.00,VWS V14.01,2013-02-14 15:52:00,
2013-02-14 10:57:00,38.9,17.8,29.76,South,186,6.0,15.0,42,0.00,,---,0.00,VWS V14.01,2013-02-14 15:57:00,
2013-02-14 11:00:00,39.3,17.6,29.76,SSW,202,4.0,15.0,41,0.00,,---,0.00,VWS V14.01,2013-02-14 16:00:00,
2013-02-14 11:02:00,39.3,18.1,29.76,SW,231,8.0,15.0,42,0.00,,---,0.00,VWS V14.01,2013-02-14 16:02:00,
2013-02-14 11:07:00,39.4,17.7,29.76,SSW,196,9.0,12.0,41,0.00,,---,0.00,VWS V14.01,2013-02-14 16:07:00,
2013-02-14 11:12:00,39.2,18.0,29.76,SW,225,6.0,13.0,42,0.00,,---,0.00,VWS V14.01,2013-02-14 16:12:00,
2013-02-14 11:17:00,38.9,17.8,29.76,SW,232,4.0,13.0,42,0.00,,---,0.00,VWS V14.01,2013-02-14 16:17:00,
2013-02-14 11:22:00,38.7,17.6,29.75,SSW,213,6.0,13.0,42,0.00,,---,0.00,VWS V14.01,2013-02-14 16:22:00,
2013-02-14 11:27:00,39.2,17.5,29.76,West,268,6.0,14.0,41,0.00,,---,0.00,VWS V14.01,2013-02-14 16:27:00,
2013-02-14 11:30:00,39.4,17.7,29.75,SSW,213,8.0,14.0,41,0.00,,---,0.00,VWS V14.01,2013-02-14 16:30:00,
2013-02-14 11:32:00,39.4,17.7,29.75,WSW,243,4.0,14.0,41,0.00,,---,0.00,VWS V14.01,2013-02-14 16:32:00,
2013-02-14 11:37:00,39.4,17.7,29.75,SW,236,2.0,11.0,41,0.00,,---,0.00,VWS V14.01,2013-02-14 16:37:00,
2013-02-14 11:42:00,38.8,17.7,29.75,SW,236,7.0,11.0,42,0.00,,---,0.00,VWS V14.01,2013-02-14 16:42:00,
2013-02-14 11:47:00,39.3,18.1,29.75,SSW,197,7.0,11.0,42,0.00,,---,0.00,VWS V14.01,2013-02-14 16:47:00,
2013-02-14 11:52:00,39.4,18.2,29.75,WSW,257,4.0,14.0,42,0.00,,---,0.00,VWS V14.01,2013-02-14 16:52:00,
2013-02-14 11:57:00,39.5,18.3,29.75,SW,225,4.0,14.0,42,0.00,,---,0.00,VWS V14.01,2013-02-14 16:57:00,
2013-02-14 12:00:00,40.6,18.8,29.76,SW,214,6.0,14.0,41,0.00,,---,0.00,VWS V14.01,2013-02-14 17:00:00,
2013-02-14 12:02:00,40.3,18.5,29.76,South,189,9.0,14.0,41,0.00,,---,0.00,VWS V14.01,2013-02-14 17:02:00,
2013-02-14 12:07:00,40.8,18.4,29.76,West,269,8.0,9.0,40,0.00,,---,0.00,VWS V14.01,2013-02-14 17:07:00,
2013-02-14 12:12:00,41.0,19.1,29.76,WSW,241,8.0,12.0,41,0.00,,---,0.00,VWS V14.01,2013-02-14 17:12:00,
2013-02-14 12:17:00,40.9,19.0,29.76,SSW,210,8.0,14.0,41,0.00,,---,0.00,VWS V14.01,2013-02-14 17:17:00,
2013-02-14 12:22:00,40.4,18.6,29.76,SW,232,8.0,14.0,41,0.00,,---,0.00,VWS V14.01,2013-02-14 17:22:00,
2013-02-14 12:27:00,41.1,18.6,29.76,SSW,210,2.0,14.0,40,0.00,,---,0.00,VWS V14.01,2013-02-14 17:27:00,
2013-02-14 12:30:00,41.3,18.2,29.76,South,172,5.0,14.0,39,0.00,,---,0.00,VWS V14.01,2013-02-14 17:30:00,
2013-02-14 12:32:00,41.6,19.1,29.76,South,185,11.0,14.0,40,0.00,,---,0.00,VWS V14.01,2013-02-14 17:32:00,
2013-02-14 12:37:00,41.1,18.0,29.76,SE,136,2.0,7.0,39,0.00,,---,0.00,VWS V14.01,2013-02-14 17:37:00,
2013-02-14 12:42:00,41.2,18.7,29.76,SSW,200,4.0,14.0,40,0.00,,---,0.00,VWS V14.01,2013-02-14 17:42:00,
2013-02-14 12:47:00,41.5,17.8,29.76,SSE,159,6.0,14.0,38,0.00,,---,0.00,VWS V14.01,2013-02-14 17:47:00,
2013-02-14 12:52:00,41.7,17.4,29.76,SSE,149,6.0,14.0,37,0.00,,---,0.00,VWS V14.01,2013-02-14 17:52:00,
2013-02-14 12:57:00,41.4,17.1,29.76,SW,219,5.0,14.0,37,0.00,,---,0.00,VWS V14.01,2013-02-14 17:57:00,
2013-02-14 13:00:00,40.9,17.3,29.75,SW,223,5.0,14.0,38,0.00,,---,0.00,VWS V14.01,2013-02-14 18:00:00,
2013-02-14 13:02:00,41.0,17.4,29.76,SW,224,6.0,14.0,38,0.00,,---,0.00,VWS V14.01,2013-02-14 18:02:00,
2013-02-14 13:07:00,41.3,17.6,29.75,SW,221,4.0,7.0,38,0.00,,---,0.00,VWS V14.01,2013-02-14 18:07:00,
2013-02-14 13:12:00,42.0,17.6,29.76,WNW,300,2.0,13.0,37,0.00,,---,0.00,VWS V14.01,2013-02-14 18:12:00,
2013-02-14 13:17:00,41.4,17.1,29.76,SW,223,6.0,16.0,37,0.00,,---,0.00,VWS V14.01,2013-02-14 18:17:00,
2013-02-14 13:22:00,40.6,17.0,29.76,SSE,167,8.0,16.0,38,0.00,,---,0.00,VWS V14.01,2013-02-14 18:22:00,
2013-02-14 13:27:00,40.7,17.1,29.76,South,171,5.0,16.0,38,0.00,,---,0.00,VWS V14.01,2013-02-14 18:27:00,
2013-02-14 13:30:00,41.3,17.6,29.76,WSW,250,5.0,16.0,38,0.00,,---,0.00,VWS V14.01,2013-02-14 18:30:00,
2013-02-14 13:32:00,40.9,17.9,29.76,SE,138,5.0,16.0,39,0.00,,---,0.00,VWS V14.01,2013-02-14 18:32:00,
2013-02-14 13:37:00,41.7,17.4,29.76,SSW,196,5.0,11.0,37,0.00,,---,0.00,VWS V14.01,2013-02-14 18:37:00,
2013-02-14 13:42:00,41.8,16.8,29.76,SSW,211,5.0,13.0,36,0.00,,---,0.00,VWS V14.01,2013-02-14 18:42:00,
2013-02-14 13:47:00,41.7,17.4,29.76,SSW,213,3.0,13.0,37,0.00,,---,0.00,VWS V14.01,2013-02-14 18:47:00,
2013-02-14 13:52:00,41.1,17.4,29.76,SSW,196,9.0,15.0,38,0.00,,---,0.00,VWS V14.01,2013-02-14 18:52:00,
2013-02-14 13:57:00,40.8,17.2,29.75,SSW,200,4.0,15.0,38,0.00,,---,0.00,VWS V14.01,2013-02-14 18:57:00,
2013-02-14 14:00:00,41.5,17.2,29.71,SSW,204,7.0,15.0,37,0.00,,---,0.00,VWS V14.01,2013-02-14 19:00:00,
2013-02-14 14:02:00,41.2,16.9,29.71,WSW,253,4.0,15.0,37,0.00,,---,0.00,VWS V14.01,2013-02-14 19:02:00,
2013-02-14 14:07:00,41.4,17.1,29.71,SSW,200,5.0,11.0,37,0.00,,---,0.00,VWS V14.01,2013-02-14 19:07:00,
2013-02-14 14:12:00,41.4,17.7,29.77,West,266,3.0,11.0,38,0.00,,---,0.00,VWS V14.01,2013-02-14 19:12:00,
2013-02-14 14:17:00,41.3,17.0,29.77,SW,219,3.0,11.0,37,0.00,,---,0.00,VWS V14.01,2013-02-14 19:17:00,
2013-02-14 14:22:00,41.1,17.4,29.77,SW,223,5.0,12.0,38,0.00,,---,0.00,VWS V14.01,2013-02-14 19:22:00,
2013-02-14 14:27:00,41.2,17.5,29.78,WSW,257,5.0,12.0,38,0.00,,---,0.00,VWS V14.01,2013-02-14 19:27:00,
2013-02-14 14:30:00,40.4,17.4,29.78,SW,226,1.0,15.0,39,0.00,,---,0.00,VWS V14.01,2013-02-14 19:30:00,
2013-02-14 14:32:00,41.0,17.4,29.77,West,259,4.0,15.0,38,0.00,,---,0.00,VWS V14.01,2013-02-14 19:32:00,
2013-02-14 14:37:00,40.8,17.8,29.78,SSW,197,6.0,8.0,39,0.00,,---,0.00,VWS V14.01,2013-02-14 19:37:00,
2013-02-14 14:42:00,41.6,17.3,29.78,SSE,168,2.0,8.0,37,0.00,,---,0.00,VWS V14.01,2013-02-14 19:42:00,
2013-02-14 14:47:00,41.8,16.8,29.78,West,267,2.0,10.0,36,0.00,,---,0.00,VWS V14.01,2013-02-14 19:47:00,
2013-02-14 14:52:00,41.8,17.5,29.78,SSW,192,5.0,10.0,37,0.00,,---,0.00,VWS V14.01,2013-02-14 19:52:00,
2013-02-14 14:57:00,41.9,16.9,29.79,SSW,211,3.0,10.0,36,0.00,,---,0.00,VWS V14.01,2013-02-14 19:57:00,
2013-02-14 15:00:00,41.1,17.5,29.79,West,264,2.0,11.0,38,0.00,,---,0.00,VWS V14.01,2013-02-14 20:00:00,
2013-02-14 15:02:00,41.4,17.1,29.79,West,269,10.0,11.0,37,0.00,,---,0.00,VWS V14.01,2013-02-14 20:02:00,
2013-02-14 15:07:00,40.5,16.3,29.78,WSW,258,7.0,12.0,37,0.00,,---,0.00,VWS V14.01,2013-02-14 20:07:00,
2013-02-14 15:12:00,40.1,17.1,29.79,SW,233,7.0,12.0,39,0.00,,---,0.00,VWS V14.01,2013-02-14 20:12:00,
2013-02-14 15:17:00,40.7,17.1,29.79,SSW,200,3.0,12.0,38,0.00,,---,0.00,VWS V14.01,2013-02-14 20:17:00,
2013-02-14 15:22:00,40.6,17.6,29.79,SW,217,7.0,12.0,39,0.00,,---,0.00,VWS V14.01,2013-02-14 20:22:00,
2013-02-14 15:27:00,40.8,17.8,29.79,SW,225,2.0,12.0,39,0.00,,---,0.00,VWS V14.01,2013-02-14 20:27:00,
2013-02-14 15:30:00,41.5,18.4,29.79,SSE,163,3.0,12.0,39,0.00,,---,0.00,VWS V14.01,2013-02-14 20:30:00,
2013-02-14 15:32:00,41.4,17.7,29.79,South,176,1.0,12.0,38,0.00,,---,0.00,VWS V14.01,2013-02-14 20:32:00,
2013-02-14 15:37:00,41.5,17.8,29.79,SSE,155,2.0,8.0,38,0.00,,---,0.00,VWS V14.01,2013-02-14 20:37:00,
2013-02-14 15:42:00,41.1,18.0,29.80,WSW,250,2.0,10.0,39,0.00,,---,0.00,VWS V14.01,2013-02-14 20:42:00,
2013-02-14 15:47:00,41.2,17.5,29.80,SW,230,5.0,10.0,38,0.00,,---,0.00,VWS V14.01,2013-02-14 20:47:00,
2013-02-14 15:52:00,40.4,17.4,29.79,West,281,3.0,10.0,39,0.00,,---,0.00,VWS V14.01,2013-02-14 20:52:00,
2013-02-14 15:57:00,40.1,17.7,29.80,SW,229,3.0,10.0,40,0.00,,---,0.00,VWS V14.01,2013-02-14 20:57:00,
2013-02-14 16:00:00,39.7,18.0,29.80,West,259,3.0,10.0,41,0.00,,---,0.00,VWS V14.01,2013-02-14 21:00:00,
2013-02-14 16:02:00,39.7,18.0,29.80,SW,234,5.0,10.0,41,0.00,,---,0.00,VWS V14.01,2013-02-14 21:02:00,
2013-02-14 16:07:00,39.6,17.9,29.80,SW,234,4.0,5.0,41,0.00,,---,0.00,VWS V14.01,2013-02-14 21:07:00,
2013-02-14 16:12:00,39.7,18.0,29.80,SW,216,2.0,5.0,41,0.00,,---,0.00,VWS V14.01,2013-02-14 21:12:00,
2013-02-14 16:17:00,39.6,18.4,29.80,SW,215,6.0,9.0,42,0.00,,---,0.00,VWS V14.01,2013-02-14 21:17:00,
2013-02-14 16:22:00,39.4,17.7,29.80,SW,226,4.0,9.0,41,0.00,,---,0.00,VWS V14.01,2013-02-14 21:22:00,
2013-02-14 16:27:00,39.1,18.0,29.81,SSW,207,5.0,9.0,42,0.00,,---,0.00,VWS V14.01,2013-02-14 21:27:00,
2013-02-14 16:30:00,38.6,18.0,29.81,SW,231,4.0,9.0,43,0.00,,---,0.00,VWS V14.01,2013-02-14 21:30:00,
2013-02-14 16:32:00,38.6,17.5,29.81,SW,219,3.0,9.0,42,0.00,,---,0.00,VWS V14.01,2013-02-14 21:32:00,
2013-02-14 16:37:00,38.4,17.9,29.82,SSW,213,3.0,5.0,43,0.00,,---,0.00,VWS V14.01,2013-02-14 21:37:00,
2013-02-14 16:42:00,38.1,17.6,29.82,SW,216,2.0,5.0,43,0.00,,---,0.00,VWS V14.01,2013-02-14 21:42:00,
2013-02-14 16:47:00,37.9,18.0,29.83,SW,217,2.0,5.0,44,0.00,,---,0.00,VWS V14.01,2013-02-14 21:47:00,
2013-02-14 16:52:00,37.8,17.9,29.83,SW,216,0.0,5.0,44,0.00,,---,0.00,VWS V14.01,2013-02-14 21:52:00,
2013-02-14 16:57:00,37.6,17.7,29.83,SW,216,0.0,5.0,44,0.00,,---,0.00,VWS V14.01,2013-02-14 21:57:00,
2013-02-14 17:00:00,37.1,17.7,29.83,SW,216,1.0,5.0,45,0.00,,---,0.00,VWS V14.01,2013-02-14 22:00:00,
2013-02-14 17:02:00,37.4,18.0,29.83,SW,216,0.0,5.0,45,0.00,,---,0.00,VWS V14.01,2013-02-14 22:02:00,
2013-02-14 17:07:00,36.9,18.1,29.84,SW,216,1.0,2.0,46,0.00,,---,0.00,VWS V14.01,2013-02-14 22:07:00,
2013-02-14 17:12:00,36.4,18.1,29.84,SW,216,0.0,2.0,47,0.00,,---,0.00,VWS V14.01,2013-02-14 22:12:00,
2013-02-14 17:17:00,36.0,18.2,29.84,SW,216,0.0,2.0,48,0.00,,---,0.00,VWS V14.01,2013-02-14 22:17:00,
2013-02-14 17:22:00,35.8,18.0,29.85,SW,216,0.0,2.0,48,0.00,,---,0.00,VWS V14.01,2013-02-14 22:22:00,
2013-02-14 17:27:00,35.5,18.2,29.85,SW,216,0.0,2.0,49,0.00,,---,0.00,VWS V14.01,2013-02-14 22:27:00,
2013-02-14 17:30:00,34.9,18.2,29.85,SW,216,0.0,2.0,50,0.00,,---,0.00,VWS V14.01,2013-02-14 22:30:00,
2013-02-14 17:32:00,35.1,17.9,29.85,SW,216,0.0,2.0,49,0.00,,---,0.00,VWS V14.01,2013-02-14 22:32:00,
2013-02-14 17:37:00,34.8,19.0,29.86,SW,216,0.0,0.0,52,0.00,,---,0.00,VWS V14.01,2013-02-14 22:37:00,
2013-02-14 17:42:00,34.5,18.2,29.86,SW,216,0.0,0.0,51,0.00,,---,0.00,VWS V14.01,2013-02-14 22:42:00,
2013-02-14 17:47:00,34.2,18.0,29.86,SW,216,0.0,0.0,51,0.00,,---,0.00,VWS V14.01,2013-02-14 22:47:00,
2013-02-14 17:52:00,34.0,17.3,29.86,SW,216,0.0,0.0,50,0.00,,---,0.00,VWS V14.01,2013-02-14 22:52:00,
2013-02-14 17:57:00,33.6,17.0,29.86,SW,216,0.0,0.0,50,0.00,,---,0.00,VWS V14.01,2013-02-14 22:57:00,
2013-02-14 18:00:00,32.9,17.2,29.86,SW,216,0.0,0.0,52,0.00,,---,0.00,VWS V14.01,2013-02-14 23:00:00,
2013-02-14 18:02:00,32.9,17.2,29.86,SW,216,0.0,0.0,52,0.00,,---,0.00,VWS V14.01,2013-02-14 23:02:00,
2013-02-14 18:07:00,32.8,17.6,29.86,SW,216,0.0,0.0,53,0.00,,---,0.00,VWS V14.01,2013-02-14 23:07:00,
2013-02-14 18:12:00,32.4,17.2,29.86,SW,216,0.0,0.0,53,0.00,,---,0.00,VWS V14.01,2013-02-14 23:12:00,
2013-02-14 18:17:00,32.2,17.4,29.86,SW,216,0.0,0.0,54,0.00,,---,0.00,VWS V14.01,2013-02-14 23:17:00,
2013-02-14 18:22:00,31.7,17.4,29.87,SW,216,0.0,0.0,55,0.00,,---,0.00,VWS V14.01,2013-02-14 23:22:00,
2013-02-14 18:27:00,31.3,17.9,29.87,SW,216,0.0,0.0,57,0.00,,---,0.00,VWS V14.01,2013-02-14 23:27:00,
2013-02-14 18:30:00,31.0,17.2,29.88,SW,216,0.0,0.0,56,0.00,,---,0.00,VWS V14.01,2013-02-14 23:30:00,
2013-02-14 18:32:00,31.1,17.2,29.88,SW,216,0.0,0.0,56,0.00,,---,0.00,VWS V14.01,2013-02-14 23:32:00,
2013-02-14 18:37:00,31.0,17.2,29.88,SW,216,0.0,0.0,56,0.00,,---,0.00,VWS V14.01,2013-02-14 23:37:00,
2013-02-14 18:42:00,30.9,17.1,29.89,SW,216,0.0,0.0,56,0.00,,---,0.00,VWS V14.01,2013-02-14 23:42:00,
2013-02-14 18:47:00,30.7,16.9,29.88,SW,216,0.0,0.0,56,0.00,,---,0.00,VWS V14.01,2013-02-14 23:47:00,
2013-02-14 18:52:00,30.3,17.3,29.89,SW,216,0.0,0.0,58,0.00,,---,0.00,VWS V14.01,2013-02-14 23:52:00,
2013-02-14 18:57:00,29.7,18.7,29.89,SW,216,0.0,0.0,63,0.00,,---,0.00,VWS V14.01,2013-02-14 23:57:00,
2013-02-14 19:00:00,29.2,18.5,29.89,SW,216,0.0,0.0,64,0.00,,---,0.00,VWS V14.01,2013-02-15 00:00:00,
2013-02-14 19:02:00,29.5,17.3,29.89,SW,216,0.0,0.0,60,0.00,,---,0.00,VWS V14.01,2013-02-15 00:02:00,
2013-02-14 19:07:00,28.9,18.3,29.89,SW,216,0.0,0.0,64,0.00,,---,0.00,VWS V14.01,2013-02-15 00:07:00,
2013-02-14 19:12:00,28.5,18.2,29.89,SW,216,0.0,0.0,65,0.00,,---,0.00,VWS V14.01,2013-02-15 00:12:00,
2013-02-14 19:17:00,28.3,18.4,29.89,SW,216,0.0,0.0,66,0.00,,---,0.00,VWS V14.01,2013-02-15 00:17:00,
2013-02-14 19:22:00,28.2,17.6,29.90,SW,216,0.0,0.0,64,0.00,,---,0.00,VWS V14.01,2013-02-15 00:22:00,
2013-02-14 19:27:00,27.9,18.7,29.90,SW,216,0.0,0.0,68,0.00,,---,0.00,VWS V14.01,2013-02-15 00:27:00,
2013-02-14 19:30:00,27.6,17.7,29.89,SW,216,0.0,0.0,66,0.00,,---,0.00,VWS V14.01,2013-02-15 00:30:00,
2013-02-14 19:32:00,27.7,18.2,29.90,SW,216,0.0,0.0,67,0.00,,---,0.00,VWS V14.01,2013-02-15 00:32:00,
2013-02-14 19:37:00,27.7,17.5,29.89,SW,216,0.0,0.0,65,0.00,,---,0.00,VWS V14.01,2013-02-15 00:37:00,
2013-02-14 19:42:00,27.7,18.2,29.89,SW,216,0.0,0.0,67,0.00,,---,0.00,VWS V14.01,2013-02-15 00:42:00,
2013-02-14 19:47:00,27.4,18.2,29.89,SW,216,0.0,0.0,68,0.00,,---,0.00,VWS V14.01,2013-02-15 00:47:00,
2013-02-14 19:52:00,27.4,17.9,29.89,SW,216,0.0,0.0,67,0.00,,---,0.00,VWS V14.01,2013-02-15 00:52:00,
2013-02-14 19:57:00,27.5,17.6,29.89,SW,216,0.0,0.0,66,0.00,,---,0.00,VWS V14.01,2013-02-15 00:57:00,
2013-02-14 20:00:00,27.6,18.4,29.90,SW,216,0.0,0.0,68,0.00,,---,0.00,VWS V14.01,2013-02-15 01:00:00,
2013-02-14 20:02:00,27.7,17.8,29.90,SW,216,0.0,0.0,66,0.00,,---,0.00,VWS V14.01,2013-02-15 01:02:00,
2013-02-14 20:07:00,27.6,19.1,29.90,SW,216,0.0,0.0,70,0.00,,---,0.00,VWS V14.01,2013-02-15 01:07:00,
2013-02-14 20:12:00,27.6,19.4,29.90,SW,216,0.0,0.0,71,0.00,,---,0.00,VWS V14.01,2013-02-15 01:12:00,
2013-02-14 20:17:00,27.5,19.0,29.90,SW,216,0.0,0.0,70,0.00,,---,0.00,VWS V14.01,2013-02-15 01:17:00,
2013-02-14 20:22:00,27.2,18.7,29.90,SW,216,0.0,0.0,70,0.00,,---,0.00,VWS V14.01,2013-02-15 01:22:00,
2013-02-14 20:27:00,27.0,18.5,29.90,SW,216,0.0,0.0,70,0.00,,---,0.00,VWS V14.01,2013-02-15 01:27:00,
2013-02-14 20:30:00,26.6,18.8,29.90,SW,216,0.0,0.0,72,0.00,,---,0.00,VWS V14.01,2013-02-15 01:30:00,
2013-02-14 20:32:00,26.8,18.7,29.90,SW,216,0.0,0.0,71,0.00,,---,0.00,VWS V14.01,2013-02-15 01:32:00,
2013-02-14 20:37:00,26.5,18.7,29.90,SW,216,0.0,0.0,72,0.00,,---,0.00,VWS V14.01,2013-02-15 01:37:00,
2013-02-14 20:42:00,26.1,19.3,29.90,SW,216,0.0,0.0,75,0.00,,---,0.00,VWS V14.01,2013-02-15 01:42:00,
2013-02-14 20:47:00,25.8,19.0,29.90,SW,216,0.0,0.0,75,0.00,,---,0.00,VWS V14.01,2013-02-15 01:47:00,
2013-02-14 20:52:00,25.8,18.7,29.90,SW,216,0.0,0.0,74,0.00,,---,0.00,VWS V14.01,2013-02-15 01:52:00,
2013-02-14 20:57:00,25.8,18.7,29.90,SW,216,0.0,0.0,74,0.00,,---,0.00,VWS V14.01,2013-02-15 01:57:00,
2013-02-14 21:00:00,25.5,19.0,29.90,SW,216,0.0,0.0,76,0.00,,---,0.00,VWS V14.01,2013-02-15 02:00:00,
2013-02-14 21:02:00,25.5,19.0,29.90,SW,216,0.0,0.0,76,0.00,,---,0.00,VWS V14.01,2013-02-15 02:02:00,
2013-02-14 21:06:00,25.5,19.0,29.90,SW,216,0.0,0.0,76,0.00,,---,0.00,VWS V14.01,2013-02-15 02:06:00,
2013-02-14 21:11:00,25.2,18.4,29.90,SW,216,0.0,0.0,75,0.00,,---,0.00,VWS V14.01,2013-02-15 02:11:00,
2013-02-14 21:16:00,25.2,18.4,29.90,SW,216,0.0,0.0,75,0.00,,---,0.00,VWS V14.01,2013-02-15 02:16:00,
2013-02-14 21:21:00,25.3,18.5,29.89,SW,216,0.0,0.0,75,0.00,,---,0.00,VWS V14.01,2013-02-15 02:21:00,
2013-02-14 21:26:00,25.3,18.5,29.89,SW,216,0.0,1.0,75,0.00,,---,0.00,VWS V14.01,2013-02-15 02:26:00,
2013-02-14 21:30:00,25.2,18.7,29.90,SW,216,0.0,1.0,76,0.00,,---,0.00,VWS V14.01,2013-02-15 02:30:00,
2013-02-14 21:31:00,25.3,18.5,29.90,SW,216,0.0,1.0,75,0.00,,---,0.00,VWS V14.01,2013-02-15 02:31:00,
2013-02-14 21:36:00,25.2,19.0,29.90,SW,216,0.0,0.0,77,0.00,,---,0.00,VWS V14.01,2013-02-15 02:36:00,
2013-02-14 21:41:00,25.1,18.9,29.90,SW,216,0.0,0.0,77,0.00,,---,0.00,VWS V14.01,2013-02-15 02:41:00,
2013-02-14 21:46:00,24.9,18.4,29.90,SW,216,0.0,0.0,76,0.00,,---,0.00,VWS V14.01,2013-02-15 02:46:00,
2013-02-14 21:51:00,24.8,18.3,29.90,SW,216,0.0,0.0,76,0.00,,---,0.00,VWS V14.01,2013-02-15 02:51:00,
2013-02-14 21:56:00,24.6,18.7,29.91,SW,216,0.0,0.0,78,0.00,,---,0.00,VWS V14.01,2013-02-15 02:56:00,
2013-02-14 22:00:00,24.3,18.7,29.90,SW,216,0.0,0.0,79,0.00,,---,0.00,VWS V14.01,2013-02-15 03:00:00,
2013-02-14 22:01:00,24.4,18.5,29.90,SW,216,0.0,0.0,78,0.00,,---,0.00,VWS V14.01,2013-02-15 03:01:00,
2013-02-14 22:06:00,24.3,18.7,29.90,SW,216,0.0,0.0,79,0.00,,---,0.00,VWS V14.01,2013-02-15 03:06:00,
2013-02-14 22:11:00,24.3,18.7,29.90,SW,216,1.0,2.0,79,0.00,,---,0.00,VWS V14.01,2013-02-15 03:11:00,
2013-02-14 22:16:00,23.9,18.0,29.90,SW,216,0.0,2.0,78,0.00,,---,0.00,VWS V14.01,2013-02-15 03:16:00,
2013-02-14 22:21:00,23.8,18.2,29.90,SW,216,0.0,2.0,79,0.00,,---,0.00,VWS V14.01,2013-02-15 03:21:00,
2013-02-14 22:26:00,23.7,18.5,29.90,SW,216,0.0,2.0,80,0.00,,---,0.00,VWS V14.01,2013-02-15 03:26:00,
2013-02-14 22:30:00,23.1,18.1,29.90,SW,216,0.0,2.0,81,0.00,,---,0.00,VWS V14.01,2013-02-15 03:30:00,
2013-02-14 22:31:00,23.3,18.1,29.90,SW,216,0.0,2.0,80,0.00,,---,0.00,VWS V14.01,2013-02-15 03:31:00,
2013-02-14 22:36:00,23.0,18.0,29.90,SW,216,0.0,0.0,81,0.00,,---,0.00,VWS V14.01,2013-02-15 03:36:00,
2013-02-14 22:41:00,22.8,17.9,29.89,SW,216,0.0,0.0,81,0.00,,---,0.00,VWS V14.01,2013-02-15 03:41:00,
2013-02-14 22:46:00,22.6,17.7,29.90,SW,216,1.0,1.0,81,0.00,,---,0.00,VWS V14.01,2013-02-15 03:46:00,
2013-02-14 22:51:00,22.4,17.8,29.89,SW,216,0.0,1.0,82,0.00,,---,0.00,VWS V14.01,2013-02-15 03:51:00,
2013-02-14 22:56:00,22.2,17.5,29.90,SW,216,0.0,1.0,82,0.00,,---,0.00,VWS V14.01,2013-02-15 03:56:00,
2013-02-14 23:00:00,22.5,17.9,29.90,SW,216,0.0,1.0,82,0.00,,---,0.00,VWS V14.01,2013-02-15 04:00:00,
2013-02-14 23:01:00,22.4,17.8,29.90,SW,216,0.0,1.0,82,0.00,,---,0.00,VWS V14.01,2013-02-15 04:01:00,
2013-02-14 23:06:00,22.6,17.9,29.90,SW,216,0.0,0.0,82,0.00,,---,0.00,VWS V14.01,2013-02-15 04:06:00,
2013-02-14 23:11:00,22.5,18.1,29.90,SW,216,0.0,0.0,83,0.00,,---,0.00,VWS V14.01,2013-02-15 04:11:00,
2013-02-14 23:16:00,22.2,17.5,29.90,SW,216,0.0,0.0,82,0.00,,---,0.00,VWS V14.01,2013-02-15 04:16:00,
2013-02-14 23:21:00,22.0,17.4,29.91,SW,216,0.0,0.0,82,0.00,,---,0.00,VWS V14.01,2013-02-15 04:21:00,
2013-02-14 23:26:00,22.2,17.5,29.91,SW,216,0.0,0.0,82,0.00,,---,0.00,VWS V14.01,2013-02-15 04:26:00,
2013-02-14 23:30:00,22.1,17.5,29.91,SW,216,0.0,0.0,82,0.00,,---,0.00,VWS V14.01,2013-02-15 04:30:00,
2013-02-14 23:31:00,22.2,17.5,29.91,SW,216,0.0,0.0,82,0.00,,---,0.00,VWS V14.01,2013-02-15 04:31:00,
2013-02-14 23:36:00,22.0,17.4,29.91,SW,216,1.0,1.0,82,0.00,,---,0.00,VWS V14.01,2013-02-15 04:36:00,
2013-02-14 23:41:00,21.7,17.3,29.91,SW,216,0.0,1.0,83,0.00,,---,0.00,VWS V14.01,2013-02-15 04:41:00,
2013-02-14 23:46:00,21.5,17.1,29.91,SW,216,0.0,1.0,83,0.00,,---,0.00,VWS V14.01,2013-02-15 04:46:00,
2013-02-14 23:51:00,21.2,16.9,29.91,SW,216,0.0,1.0,83,0.00,,---,0.00,VWS V14.01,2013-02-15 04:51:00,
2013-02-14 23:56:00,21.4,17.3,29.91,SW,216,0.0,1.0,84,0.00,,---,0.00,VWS V14.01,2013-02-15 04:56:00,